sensor_id;sensor_type;location;lat;lon;timestamp;P1;durP1;ratioP1;P2;durP2;ratioP2
25615;SDS011;13482;48.234;13.006;2024-02-15T00:00:04;3.30;;;1.90;;
25615;SDS011;13482;48.234;13.006;2024-02-15T00:02:32;2.70;;;1.60;;
25615;SDS011;13482;48.234;13.006;2024-02-15T00:05:00;2.83;;;1.75;;
25615;SDS011;13482;48.234;13.006;2024-02-15T00:07:27;2.63;;;1.55;;
25615;SDS011;13482;48.234;13.006;2024-02-15T00:09:55;2.90;;;1.80;;
25615;SDS011;13482;48.234;13.006;2024-02-15T00:12:22;3.72;;;2.00;;
25615;SDS011;13482;48.234;13.006;2024-02-15T00:14:50;3.05;;;1.88;;
25615;SDS011;13482;48.234;13.006;2024-02-15T00:17:18;3.20;;;1.95;;
25615;SDS011;13482;48.234;13.006;2024-02-15T00:19:45;3.88;;;1.75;;
25615;SDS011;13482;48.234;13.006;2024-02-15T00:22:13;2.60;;;1.67;;
25615;SDS011;13482;48.234;13.006;2024-02-15T00:24:40;3.05;;;1.73;;
25615;SDS011;13482;48.234;13.006;2024-02-15T00:27:12;3.17;;;1.90;;
25615;SDS011;13482;48.234;13.006;2024-02-15T00:29:39;2.40;;;1.50;;
25615;SDS011;13482;48.234;13.006;2024-02-15T00:32:07;2.30;;;1.40;;
25615;SDS011;13482;48.234;13.006;2024-02-15T00:37:07;1.80;;;1.25;;
25615;SDS011;13482;48.234;13.006;2024-02-15T00:39:35;2.22;;;1.45;;
25615;SDS011;13482;48.234;13.006;2024-02-15T00:42:02;3.10;;;1.67;;
25615;SDS011;13482;48.234;13.006;2024-02-15T00:44:30;3.67;;;2.22;;
25615;SDS011;13482;48.234;13.006;2024-02-15T00:47:01;3.85;;;1.90;;
25615;SDS011;13482;48.234;13.006;2024-02-15T00:49:29;3.10;;;1.93;;
25615;SDS011;13482;48.234;13.006;2024-02-15T00:51:57;3.72;;;2.22;;
25615;SDS011;13482;48.234;13.006;2024-02-15T00:54:25;4.45;;;2.00;;
25615;SDS011;13482;48.234;13.006;2024-02-15T00:56:52;3.20;;;1.75;;
25615;SDS011;13482;48.234;13.006;2024-02-15T00:59:20;3.53;;;1.90;;
25615;SDS011;13482;48.234;13.006;2024-02-15T01:01:48;3.88;;;1.95;;
25615;SDS011;13482;48.234;13.006;2024-02-15T01:04:15;2.80;;;1.67;;
25615;SDS011;13482;48.234;13.006;2024-02-15T01:06:43;2.97;;;1.67;;
25615;SDS011;13482;48.234;13.006;2024-02-15T01:09:11;3.20;;;1.80;;
25615;SDS011;13482;48.234;13.006;2024-02-15T01:11:39;2.58;;;1.30;;
25615;SDS011;13482;48.234;13.006;2024-02-15T01:14:07;2.40;;;1.60;;
25615;SDS011;13482;48.234;13.006;2024-02-15T01:16:36;2.55;;;1.40;;
25615;SDS011;13482;48.234;13.006;2024-02-15T01:19:03;2.58;;;1.63;;
25615;SDS011;13482;48.234;13.006;2024-02-15T01:21:32;2.42;;;1.45;;
25615;SDS011;13482;48.234;13.006;2024-02-15T01:23:59;3.80;;;1.60;;
25615;SDS011;13482;48.234;13.006;2024-02-15T01:26:27;3.10;;;1.73;;
25615;SDS011;13482;48.234;13.006;2024-02-15T01:28:55;3.30;;;1.88;;
25615;SDS011;13482;48.234;13.006;2024-02-15T01:31:23;3.30;;;1.80;;
25615;SDS011;13482;48.234;13.006;2024-02-15T01:33:50;3.97;;;2.20;;
25615;SDS011;13482;48.234;13.006;2024-02-15T01:36:18;3.42;;;1.73;;
25615;SDS011;13482;48.234;13.006;2024-02-15T01:38:46;3.00;;;2.05;;
25615;SDS011;13482;48.234;13.006;2024-02-15T01:41:14;2.95;;;2.00;;
25615;SDS011;13482;48.234;13.006;2024-02-15T01:43:44;2.75;;;1.60;;
25615;SDS011;13482;48.234;13.006;2024-02-15T01:46:14;3.13;;;1.75;;
25615;SDS011;13482;48.234;13.006;2024-02-15T01:48:43;3.50;;;1.90;;
25615;SDS011;13482;48.234;13.006;2024-02-15T01:51:12;2.53;;;1.73;;
25615;SDS011;13482;48.234;13.006;2024-02-15T01:53:43;3.03;;;1.98;;
25615;SDS011;13482;48.234;13.006;2024-02-15T01:56:11;2.78;;;1.73;;
25615;SDS011;13482;48.234;13.006;2024-02-15T01:58:41;2.65;;;1.77;;
25615;SDS011;13482;48.234;13.006;2024-02-15T02:01:12;2.80;;;1.63;;
25615;SDS011;13482;48.234;13.006;2024-02-15T02:03:41;2.90;;;1.73;;
25615;SDS011;13482;48.234;13.006;2024-02-15T02:06:10;2.50;;;1.60;;
25615;SDS011;13482;48.234;13.006;2024-02-15T02:08:40;2.65;;;1.60;;
25615;SDS011;13482;48.234;13.006;2024-02-15T02:11:08;2.70;;;1.58;;
25615;SDS011;13482;48.234;13.006;2024-02-15T02:13:36;2.60;;;1.70;;
25615;SDS011;13482;48.234;13.006;2024-02-15T02:16:05;2.83;;;1.60;;
25615;SDS011;13482;48.234;13.006;2024-02-15T02:18:55;2.03;;;1.33;;
25615;SDS011;13482;48.234;13.006;2024-02-15T02:21:25;2.80;;;1.90;;
25615;SDS011;13482;48.234;13.006;2024-02-15T02:23:57;2.80;;;1.65;;
25615;SDS011;13482;48.234;13.006;2024-02-15T02:26:25;2.90;;;2.08;;
25615;SDS011;13482;48.234;13.006;2024-02-15T02:28:53;3.47;;;2.20;;
25615;SDS011;13482;48.234;13.006;2024-02-15T02:31:20;2.95;;;1.73;;
25615;SDS011;13482;48.234;13.006;2024-02-15T02:33:50;3.05;;;1.83;;
25615;SDS011;13482;48.234;13.006;2024-02-15T02:36:20;3.65;;;1.83;;
25615;SDS011;13482;48.234;13.006;2024-02-15T02:38:48;3.05;;;1.92;;
25615;SDS011;13482;48.234;13.006;2024-02-15T02:41:18;2.53;;;1.50;;
25615;SDS011;13482;48.234;13.006;2024-02-15T02:43:46;2.63;;;1.70;;
25615;SDS011;13482;48.234;13.006;2024-02-15T02:46:13;2.13;;;1.55;;
25615;SDS011;13482;48.234;13.006;2024-02-15T02:48:42;2.20;;;1.35;;
25615;SDS011;13482;48.234;13.006;2024-02-15T02:51:09;3.40;;;1.80;;
25615;SDS011;13482;48.234;13.006;2024-02-15T02:53:37;2.25;;;1.58;;
25615;SDS011;13482;48.234;13.006;2024-02-15T02:56:04;2.13;;;1.50;;
25615;SDS011;13482;48.234;13.006;2024-02-15T02:58:35;2.72;;;1.65;;
25615;SDS011;13482;48.234;13.006;2024-02-15T03:01:02;2.90;;;1.70;;
25615;SDS011;13482;48.234;13.006;2024-02-15T03:03:30;2.20;;;1.40;;
25615;SDS011;13482;48.234;13.006;2024-02-15T03:05:58;2.30;;;1.50;;
25615;SDS011;13482;48.234;13.006;2024-02-15T03:08:25;3.15;;;1.58;;
25615;SDS011;13482;48.234;13.006;2024-02-15T03:10:53;2.08;;;1.40;;
25615;SDS011;13482;48.234;13.006;2024-02-15T03:13:21;2.40;;;1.50;;
25615;SDS011;13482;48.234;13.006;2024-02-15T03:15:49;2.00;;;1.40;;
25615;SDS011;13482;48.234;13.006;2024-02-15T03:18:17;2.92;;;1.60;;
25615;SDS011;13482;48.234;13.006;2024-02-15T03:20:45;1.98;;;1.20;;
25615;SDS011;13482;48.234;13.006;2024-02-15T03:23:12;2.40;;;1.17;;
25615;SDS011;13482;48.234;13.006;2024-02-15T03:25:40;2.90;;;1.50;;
25615;SDS011;13482;48.234;13.006;2024-02-15T03:28:07;2.50;;;1.45;;
25615;SDS011;13482;48.234;13.006;2024-02-15T03:30:35;2.35;;;1.23;;
25615;SDS011;13482;48.234;13.006;2024-02-15T03:33:02;2.22;;;1.23;;
25615;SDS011;13482;48.234;13.006;2024-02-15T03:35:33;3.63;;;1.20;;
25615;SDS011;13482;48.234;13.006;2024-02-15T03:38:01;2.40;;;1.50;;
25615;SDS011;13482;48.234;13.006;2024-02-15T03:40:29;2.20;;;1.40;;
25615;SDS011;13482;48.234;13.006;2024-02-15T03:42:59;2.47;;;1.38;;
25615;SDS011;13482;48.234;13.006;2024-02-15T03:45:26;2.53;;;1.48;;
25615;SDS011;13482;48.234;13.006;2024-02-15T03:47:54;3.17;;;1.55;;
25615;SDS011;13482;48.234;13.006;2024-02-15T03:50:25;3.28;;;1.73;;
25615;SDS011;13482;48.234;13.006;2024-02-15T03:52:52;2.75;;;1.60;;
25615;SDS011;13482;48.234;13.006;2024-02-15T03:55:21;2.20;;;1.40;;
25615;SDS011;13482;48.234;13.006;2024-02-15T03:57:49;2.20;;;1.55;;
25615;SDS011;13482;48.234;13.006;2024-02-15T04:00:16;2.08;;;1.45;;
25615;SDS011;13482;48.234;13.006;2024-02-15T04:02:48;4.38;;;2.13;;
25615;SDS011;13482;48.234;13.006;2024-02-15T04:05:16;4.13;;;2.60;;
25615;SDS011;13482;48.234;13.006;2024-02-15T04:07:45;3.15;;;2.20;;
25615;SDS011;13482;48.234;13.006;2024-02-15T04:10:14;4.57;;;2.35;;
25615;SDS011;13482;48.234;13.006;2024-02-15T04:12:44;2.70;;;1.90;;
25615;SDS011;13482;48.234;13.006;2024-02-15T04:15:12;3.15;;;1.90;;
25615;SDS011;13482;48.234;13.006;2024-02-15T04:17:44;2.88;;;1.70;;
25615;SDS011;13482;48.234;13.006;2024-02-15T04:20:13;2.63;;;1.52;;
25615;SDS011;13482;48.234;13.006;2024-02-15T04:22:43;3.03;;;1.80;;
25615;SDS011;13482;48.234;13.006;2024-02-15T04:25:11;2.40;;;1.48;;
25615;SDS011;13482;48.234;13.006;2024-02-15T04:27:44;2.15;;;1.48;;
25615;SDS011;13482;48.234;13.006;2024-02-15T04:30:14;2.35;;;1.50;;
25615;SDS011;13482;48.234;13.006;2024-02-15T04:32:44;2.40;;;1.58;;
25615;SDS011;13482;48.234;13.006;2024-02-15T04:35:14;2.30;;;1.45;;
25615;SDS011;13482;48.234;13.006;2024-02-15T04:37:41;2.00;;;1.50;;
25615;SDS011;13482;48.234;13.006;2024-02-15T04:40:09;2.08;;;1.35;;
25615;SDS011;13482;48.234;13.006;2024-02-15T04:42:40;2.17;;;1.30;;
25615;SDS011;13482;48.234;13.006;2024-02-15T04:45:10;2.67;;;1.50;;
25615;SDS011;13482;48.234;13.006;2024-02-15T04:47:41;2.58;;;1.67;;
25615;SDS011;13482;48.234;13.006;2024-02-15T04:50:09;2.30;;;1.42;;
25615;SDS011;13482;48.234;13.006;2024-02-15T04:52:36;2.13;;;1.50;;
25615;SDS011;13482;48.234;13.006;2024-02-15T04:55:04;2.40;;;1.50;;
25615;SDS011;13482;48.234;13.006;2024-02-15T04:57:32;2.30;;;1.45;;
25615;SDS011;13482;48.234;13.006;2024-02-15T05:00:03;2.50;;;1.58;;
25615;SDS011;13482;48.234;13.006;2024-02-15T05:02:37;2.13;;;1.50;;
25615;SDS011;13482;48.234;13.006;2024-02-15T05:05:11;2.95;;;1.73;;
25615;SDS011;13482;48.234;13.006;2024-02-15T05:07:41;2.70;;;1.60;;
25615;SDS011;13482;48.234;13.006;2024-02-15T05:10:10;2.50;;;1.60;;
25615;SDS011;13482;48.234;13.006;2024-02-15T05:12:37;2.85;;;2.00;;
25615;SDS011;13482;48.234;13.006;2024-02-15T05:15:07;3.20;;;2.00;;
25615;SDS011;13482;48.234;13.006;2024-02-15T05:17:40;2.38;;;1.70;;
25615;SDS011;13482;48.234;13.006;2024-02-15T05:20:09;2.30;;;1.60;;
25615;SDS011;13482;48.234;13.006;2024-02-15T05:25:16;3.38;;;1.80;;
25615;SDS011;13482;48.234;13.006;2024-02-15T05:27:52;2.47;;;1.63;;
25615;SDS011;13482;48.234;13.006;2024-02-15T05:30:27;1.90;;;1.42;;
25615;SDS011;13482;48.234;13.006;2024-02-15T05:32:56;2.58;;;1.70;;
25615;SDS011;13482;48.234;13.006;2024-02-15T05:35:24;2.78;;;1.65;;
25615;SDS011;13482;48.234;13.006;2024-02-15T05:37:53;3.20;;;1.85;;
25615;SDS011;13482;48.234;13.006;2024-02-15T05:40:21;3.25;;;1.55;;
25615;SDS011;13482;48.234;13.006;2024-02-15T05:42:48;3.40;;;1.65;;
25615;SDS011;13482;48.234;13.006;2024-02-15T05:47:56;2.70;;;1.63;;
25615;SDS011;13482;48.234;13.006;2024-02-15T05:50:25;2.58;;;1.65;;
25615;SDS011;13482;48.234;13.006;2024-02-15T05:52:56;2.77;;;1.63;;
25615;SDS011;13482;48.234;13.006;2024-02-15T05:55:25;3.30;;;1.90;;
25615;SDS011;13482;48.234;13.006;2024-02-15T05:57:53;3.10;;;1.77;;
25615;SDS011;13482;48.234;13.006;2024-02-15T06:00:20;2.28;;;1.70;;
25615;SDS011;13482;48.234;13.006;2024-02-15T06:02:49;2.72;;;1.70;;
25615;SDS011;13482;48.234;13.006;2024-02-15T06:05:19;3.00;;;1.88;;
25615;SDS011;13482;48.234;13.006;2024-02-15T06:07:47;2.15;;;1.50;;
25615;SDS011;13482;48.234;13.006;2024-02-15T06:10:15;3.05;;;1.65;;
25615;SDS011;13482;48.234;13.006;2024-02-15T06:12:42;3.15;;;1.92;;
25615;SDS011;13482;48.234;13.006;2024-02-15T06:15:10;3.00;;;1.90;;
25615;SDS011;13482;48.234;13.006;2024-02-15T06:17:44;2.72;;;1.85;;
25615;SDS011;13482;48.234;13.006;2024-02-15T06:20:14;3.35;;;2.03;;
25615;SDS011;13482;48.234;13.006;2024-02-15T06:22:45;2.28;;;1.50;;
25615;SDS011;13482;48.234;13.006;2024-02-15T06:25:14;2.90;;;1.90;;
25615;SDS011;13482;48.234;13.006;2024-02-15T06:27:47;2.40;;;1.70;;
25615;SDS011;13482;48.234;13.006;2024-02-15T06:30:18;3.28;;;1.75;;
25615;SDS011;13482;48.234;13.006;2024-02-15T06:33:20;2.55;;;1.70;;
25615;SDS011;13482;48.234;13.006;2024-02-15T06:36:08;2.30;;;1.50;;
25615;SDS011;13482;48.234;13.006;2024-02-15T06:38:54;2.58;;;1.90;;
25615;SDS011;13482;48.234;13.006;2024-02-15T06:41:40;2.28;;;1.88;;
25615;SDS011;13482;48.234;13.006;2024-02-15T06:44:08;2.63;;;1.80;;
25615;SDS011;13482;48.234;13.006;2024-02-15T06:46:36;2.20;;;1.50;;
25615;SDS011;13482;48.234;13.006;2024-02-15T06:49:03;2.08;;;1.42;;
25615;SDS011;13482;48.234;13.006;2024-02-15T06:51:32;2.35;;;1.63;;
25615;SDS011;13482;48.234;13.006;2024-02-15T06:53:59;2.00;;;1.30;;
25615;SDS011;13482;48.234;13.006;2024-02-15T06:56:28;2.30;;;1.35;;
25615;SDS011;13482;48.234;13.006;2024-02-15T06:58:56;2.55;;;1.80;;
25615;SDS011;13482;48.234;13.006;2024-02-15T07:01:25;4.38;;;1.95;;
25615;SDS011;13482;48.234;13.006;2024-02-15T07:03:52;3.78;;;1.75;;
25615;SDS011;13482;48.234;13.006;2024-02-15T07:06:24;2.85;;;2.00;;
25615;SDS011;13482;48.234;13.006;2024-02-15T07:08:54;7.05;;;4.57;;
25615;SDS011;13482;48.234;13.006;2024-02-15T07:11:24;6.90;;;4.35;;
25615;SDS011;13482;48.234;13.006;2024-02-15T07:13:51;5.13;;;3.55;;
25615;SDS011;13482;48.234;13.006;2024-02-15T07:16:21;6.68;;;4.30;;
25615;SDS011;13482;48.234;13.006;2024-02-15T07:18:50;5.53;;;4.05;;
25615;SDS011;13482;48.234;13.006;2024-02-15T07:21:19;6.20;;;4.40;;
25615;SDS011;13482;48.234;13.006;2024-02-15T07:23:53;6.53;;;4.45;;
25615;SDS011;13482;48.234;13.006;2024-02-15T07:26:23;5.25;;;4.00;;
25615;SDS011;13482;48.234;13.006;2024-02-15T07:28:52;5.25;;;3.97;;
25615;SDS011;13482;48.234;13.006;2024-02-15T07:31:21;5.22;;;4.05;;
25615;SDS011;13482;48.234;13.006;2024-02-15T07:33:50;4.40;;;3.10;;
25615;SDS011;13482;48.234;13.006;2024-02-15T07:36:19;4.28;;;3.00;;
25615;SDS011;13482;48.234;13.006;2024-02-15T07:38:50;3.05;;;2.10;;
25615;SDS011;13482;48.234;13.006;2024-02-15T07:41:23;3.03;;;2.03;;
25615;SDS011;13482;48.234;13.006;2024-02-15T07:43:51;2.63;;;1.70;;
25615;SDS011;13482;48.234;13.006;2024-02-15T07:46:21;3.50;;;1.77;;
25615;SDS011;13482;48.234;13.006;2024-02-15T07:48:50;2.65;;;1.60;;
25615;SDS011;13482;48.234;13.006;2024-02-15T07:51:19;2.25;;;1.60;;
25615;SDS011;13482;48.234;13.006;2024-02-15T07:53:49;3.30;;;1.90;;
25615;SDS011;13482;48.234;13.006;2024-02-15T07:56:19;3.65;;;1.73;;
25615;SDS011;13482;48.234;13.006;2024-02-15T07:58:47;3.35;;;1.98;;
25615;SDS011;13482;48.234;13.006;2024-02-15T08:01:20;2.53;;;1.58;;
25615;SDS011;13482;48.234;13.006;2024-02-15T08:03:49;3.67;;;1.80;;
25615;SDS011;13482;48.234;13.006;2024-02-15T08:08:52;2.50;;;1.48;;
25615;SDS011;13482;48.234;13.006;2024-02-15T08:11:20;2.42;;;1.65;;
25615;SDS011;13482;48.234;13.006;2024-02-15T08:13:48;2.20;;;1.70;;
25615;SDS011;13482;48.234;13.006;2024-02-15T08:16:21;2.70;;;1.80;;
25615;SDS011;13482;48.234;13.006;2024-02-15T08:18:50;2.95;;;1.75;;
25615;SDS011;13482;48.234;13.006;2024-02-15T08:21:25;2.83;;;1.98;;
25615;SDS011;13482;48.234;13.006;2024-02-15T08:24:00;2.80;;;1.73;;
25615;SDS011;13482;48.234;13.006;2024-02-15T08:26:33;2.38;;;1.65;;
25615;SDS011;13482;48.234;13.006;2024-02-15T08:29:05;2.55;;;1.65;;
25615;SDS011;13482;48.234;13.006;2024-02-15T08:31:33;1.95;;;1.42;;
25615;SDS011;13482;48.234;13.006;2024-02-15T08:34:01;2.88;;;1.88;;
25615;SDS011;13482;48.234;13.006;2024-02-15T08:36:32;2.72;;;1.55;;
25615;SDS011;13482;48.234;13.006;2024-02-15T08:39:00;2.38;;;1.58;;
25615;SDS011;13482;48.234;13.006;2024-02-15T08:41:28;2.90;;;1.90;;
25615;SDS011;13482;48.234;13.006;2024-02-15T08:43:55;3.30;;;2.08;;
25615;SDS011;13482;48.234;13.006;2024-02-15T08:46:24;2.63;;;1.70;;
25615;SDS011;13482;48.234;13.006;2024-02-15T08:48:54;2.55;;;1.85;;
25615;SDS011;13482;48.234;13.006;2024-02-15T08:51:21;2.75;;;1.73;;
25615;SDS011;13482;48.234;13.006;2024-02-15T08:53:50;2.30;;;1.50;;
25615;SDS011;13482;48.234;13.006;2024-02-15T08:56:18;1.83;;;1.35;;
25615;SDS011;13482;48.234;13.006;2024-02-15T08:58:45;1.98;;;1.30;;
25615;SDS011;13482;48.234;13.006;2024-02-15T09:01:14;2.60;;;1.30;;
25615;SDS011;13482;48.234;13.006;2024-02-15T09:03:42;2.35;;;1.40;;
25615;SDS011;13482;48.234;13.006;2024-02-15T09:06:12;1.85;;;1.27;;
25615;SDS011;13482;48.234;13.006;2024-02-15T09:08:40;1.83;;;1.45;;
25615;SDS011;13482;48.234;13.006;2024-02-15T09:11:08;2.53;;;1.38;;
25615;SDS011;13482;48.234;13.006;2024-02-15T09:13:39;3.55;;;1.42;;
25615;SDS011;13482;48.234;13.006;2024-02-15T09:16:06;1.80;;;1.33;;
25615;SDS011;13482;48.234;13.006;2024-02-15T09:18:34;2.92;;;1.48;;
25615;SDS011;13482;48.234;13.006;2024-02-15T09:21:02;1.65;;;1.08;;
25615;SDS011;13482;48.234;13.006;2024-02-15T09:23:31;2.60;;;1.42;;
25615;SDS011;13482;48.234;13.006;2024-02-15T09:25:59;2.00;;;1.30;;
25615;SDS011;13482;48.234;13.006;2024-02-15T09:28:26;2.30;;;1.42;;
25615;SDS011;13482;48.234;13.006;2024-02-15T09:30:54;2.10;;;1.25;;
25615;SDS011;13482;48.234;13.006;2024-02-15T09:33:26;2.00;;;1.15;;
25615;SDS011;13482;48.234;13.006;2024-02-15T09:35:54;2.50;;;1.25;;
25615;SDS011;13482;48.234;13.006;2024-02-15T09:38:22;2.58;;;1.45;;
25615;SDS011;13482;48.234;13.006;2024-02-15T09:40:51;2.10;;;1.20;;
25615;SDS011;13482;48.234;13.006;2024-02-15T09:43:19;2.10;;;1.27;;
25615;SDS011;13482;48.234;13.006;2024-02-15T09:45:48;1.95;;;1.30;;
25615;SDS011;13482;48.234;13.006;2024-02-15T09:48:17;1.90;;;1.00;;
25615;SDS011;13482;48.234;13.006;2024-02-15T09:50:48;1.55;;;0.90;;
25615;SDS011;13482;48.234;13.006;2024-02-15T09:55:49;1.88;;;1.10;;
25615;SDS011;13482;48.234;13.006;2024-02-15T09:58:19;1.95;;;1.20;;
25615;SDS011;13482;48.234;13.006;2024-02-15T10:00:49;1.67;;;1.10;;
25615;SDS011;13482;48.234;13.006;2024-02-15T10:03:18;1.65;;;1.15;;
25615;SDS011;13482;48.234;13.006;2024-02-15T10:05:48;1.93;;;1.20;;
25615;SDS011;13482;48.234;13.006;2024-02-15T10:08:16;1.23;;;0.80;;
25615;SDS011;13482;48.234;13.006;2024-02-15T10:10:44;2.20;;;1.20;;
25615;SDS011;13482;48.234;13.006;2024-02-15T10:13:12;1.80;;;1.10;;
25615;SDS011;13482;48.234;13.006;2024-02-15T10:15:40;1.75;;;0.90;;
25615;SDS011;13482;48.234;13.006;2024-02-15T10:18:08;1.48;;;0.93;;
25615;SDS011;13482;48.234;13.006;2024-02-15T10:20:39;2.78;;;1.17;;
25615;SDS011;13482;48.234;13.006;2024-02-15T10:23:13;1.52;;;0.93;;
25615;SDS011;13482;48.234;13.006;2024-02-15T10:25:45;3.47;;;1.27;;
25615;SDS011;13482;48.234;13.006;2024-02-15T10:28:14;1.73;;;1.00;;
25615;SDS011;13482;48.234;13.006;2024-02-15T10:30:52;1.88;;;0.95;;
25615;SDS011;13482;48.234;13.006;2024-02-15T10:33:29;1.42;;;1.00;;
25615;SDS011;13482;48.234;13.006;2024-02-15T10:36:07;2.05;;;1.00;;
25615;SDS011;13482;48.234;13.006;2024-02-15T10:38:38;1.33;;;0.77;;
25615;SDS011;13482;48.234;13.006;2024-02-15T10:41:06;2.72;;;0.90;;
25615;SDS011;13482;48.234;13.006;2024-02-15T10:43:38;1.88;;;0.90;;
25615;SDS011;13482;48.234;13.006;2024-02-15T10:46:12;1.05;;;0.60;;
25615;SDS011;13482;48.234;13.006;2024-02-15T10:48:41;1.20;;;0.70;;
25615;SDS011;13482;48.234;13.006;2024-02-15T10:51:11;1.30;;;0.80;;
25615;SDS011;13482;48.234;13.006;2024-02-15T10:53:45;1.50;;;0.80;;
25615;SDS011;13482;48.234;13.006;2024-02-15T10:56:26;1.10;;;0.73;;
25615;SDS011;13482;48.234;13.006;2024-02-15T11:01:44;0.98;;;0.60;;
25615;SDS011;13482;48.234;13.006;2024-02-15T11:04:15;2.10;;;0.75;;
25615;SDS011;13482;48.234;13.006;2024-02-15T11:06:52;1.20;;;0.70;;
25615;SDS011;13482;48.234;13.006;2024-02-15T11:09:23;1.40;;;0.80;;
25615;SDS011;13482;48.234;13.006;2024-02-15T11:11:53;2.42;;;1.00;;
25615;SDS011;13482;48.234;13.006;2024-02-15T11:14:26;2.55;;;1.10;;
25615;SDS011;13482;48.234;13.006;2024-02-15T11:16:56;3.83;;;0.90;;
25615;SDS011;13482;48.234;13.006;2024-02-15T11:22:17;1.98;;;0.88;;
25615;SDS011;13482;48.234;13.006;2024-02-15T11:24:48;2.13;;;0.80;;
25615;SDS011;13482;48.234;13.006;2024-02-15T11:27:26;1.50;;;0.90;;
25615;SDS011;13482;48.234;13.006;2024-02-15T11:29:56;2.80;;;1.13;;
25615;SDS011;13482;48.234;13.006;2024-02-15T11:35:22;2.30;;;1.05;;
25615;SDS011;13482;48.234;13.006;2024-02-15T11:37:53;2.05;;;1.02;;
25615;SDS011;13482;48.234;13.006;2024-02-15T11:40:27;1.73;;;1.05;;
25615;SDS011;13482;48.234;13.006;2024-02-15T11:46:23;2.28;;;1.23;;
25615;SDS011;13482;48.234;13.006;2024-02-15T11:48:57;2.50;;;1.00;;
25615;SDS011;13482;48.234;13.006;2024-02-15T11:51:32;2.50;;;0.90;;
25615;SDS011;13482;48.234;13.006;2024-02-15T11:56:49;1.55;;;0.90;;
25615;SDS011;13482;48.234;13.006;2024-02-15T12:02:41;1.23;;;0.77;;
25615;SDS011;13482;48.234;13.006;2024-02-15T12:05:28;1.58;;;0.82;;
25615;SDS011;13482;48.234;13.006;2024-02-15T12:08:14;1.63;;;0.80;;
25615;SDS011;13482;48.234;13.006;2024-02-15T12:11:00;1.25;;;0.75;;
25615;SDS011;13482;48.234;13.006;2024-02-15T12:13:50;1.45;;;0.70;;
25615;SDS011;13482;48.234;13.006;2024-02-15T12:16:37;1.15;;;0.60;;
25615;SDS011;13482;48.234;13.006;2024-02-15T12:19:23;1.23;;;0.68;;
25615;SDS011;13482;48.234;13.006;2024-02-15T12:21:51;1.10;;;0.70;;
25615;SDS011;13482;48.234;13.006;2024-02-15T12:24:19;1.20;;;0.80;;
25615;SDS011;13482;48.234;13.006;2024-02-15T12:26:58;1.15;;;0.73;;
25615;SDS011;13482;48.234;13.006;2024-02-15T12:29:30;1.63;;;0.65;;
25615;SDS011;13482;48.234;13.006;2024-02-15T12:31:59;0.90;;;0.60;;
25615;SDS011;13482;48.234;13.006;2024-02-15T12:34:26;1.08;;;0.70;;
25615;SDS011;13482;48.234;13.006;2024-02-15T12:37:15;1.80;;;0.70;;
25615;SDS011;13482;48.234;13.006;2024-02-15T12:39:44;1.05;;;0.60;;
25615;SDS011;13482;48.234;13.006;2024-02-15T12:42:12;1.10;;;0.70;;
25615;SDS011;13482;48.234;13.006;2024-02-15T12:44:44;1.10;;;0.55;;
25615;SDS011;13482;48.234;13.006;2024-02-15T12:47:17;1.08;;;0.60;;
25615;SDS011;13482;48.234;13.006;2024-02-15T12:49:49;1.13;;;0.60;;
25615;SDS011;13482;48.234;13.006;2024-02-15T12:52:37;1.85;;;0.70;;
25615;SDS011;13482;48.234;13.006;2024-02-15T12:55:13;1.25;;;0.50;;
25615;SDS011;13482;48.234;13.006;2024-02-15T12:57:49;1.50;;;0.60;;
25615;SDS011;13482;48.234;13.006;2024-02-15T13:00:23;1.20;;;0.63;;
25615;SDS011;13482;48.234;13.006;2024-02-15T13:03:01;1.20;;;0.60;;
25615;SDS011;13482;48.234;13.006;2024-02-15T13:05:31;0.85;;;0.57;;
25615;SDS011;13482;48.234;13.006;2024-02-15T13:07:59;1.05;;;0.60;;
25615;SDS011;13482;48.234;13.006;2024-02-15T13:10:31;1.23;;;0.60;;
25615;SDS011;13482;48.234;13.006;2024-02-15T13:12:59;0.73;;;0.50;;
25615;SDS011;13482;48.234;13.006;2024-02-15T13:15:27;0.90;;;0.50;;
25615;SDS011;13482;48.234;13.006;2024-02-15T13:18:00;0.88;;;0.40;;
25615;SDS011;13482;48.234;13.006;2024-02-15T13:20:33;0.70;;;0.40;;
25615;SDS011;13482;48.234;13.006;2024-02-15T13:25:37;0.68;;;0.28;;
25615;SDS011;13482;48.234;13.006;2024-02-15T13:28:11;0.70;;;0.40;;
25615;SDS011;13482;48.234;13.006;2024-02-15T13:30:40;1.13;;;0.50;;
25615;SDS011;13482;48.234;13.006;2024-02-15T13:33:13;0.85;;;0.40;;
25615;SDS011;13482;48.234;13.006;2024-02-15T13:35:43;1.33;;;0.52;;
25615;SDS011;13482;48.234;13.006;2024-02-15T13:38:11;0.30;;;0.20;;
25615;SDS011;13482;48.234;13.006;2024-02-15T13:40:51;0.60;;;0.40;;
25615;SDS011;13482;48.234;13.006;2024-02-15T13:43:22;0.75;;;0.47;;
25615;SDS011;13482;48.234;13.006;2024-02-15T13:45:50;0.98;;;0.32;;
25615;SDS011;13482;48.234;13.006;2024-02-15T13:48:19;0.80;;;0.50;;
25615;SDS011;13482;48.234;13.006;2024-02-15T13:50:49;1.02;;;0.50;;
25615;SDS011;13482;48.234;13.006;2024-02-15T13:53:22;0.55;;;0.40;;
25615;SDS011;13482;48.234;13.006;2024-02-15T13:55:51;0.73;;;0.50;;
25615;SDS011;13482;48.234;13.006;2024-02-15T13:58:19;1.00;;;0.52;;
25615;SDS011;13482;48.234;13.006;2024-02-15T14:00:47;0.90;;;0.43;;
25615;SDS011;13482;48.234;13.006;2024-02-15T14:03:15;0.70;;;0.40;;
25615;SDS011;13482;48.234;13.006;2024-02-15T14:05:45;0.60;;;0.45;;
25615;SDS011;13482;48.234;13.006;2024-02-15T14:08:14;1.58;;;0.88;;
25615;SDS011;13482;48.234;13.006;2024-02-15T14:10:42;0.98;;;0.50;;
25615;SDS011;13482;48.234;13.006;2024-02-15T14:13:11;1.38;;;0.63;;
25615;SDS011;13482;48.234;13.006;2024-02-15T14:15:39;0.80;;;0.47;;
25615;SDS011;13482;48.234;13.006;2024-02-15T14:18:11;1.13;;;0.60;;
25615;SDS011;13482;48.234;13.006;2024-02-15T14:20:46;1.23;;;0.70;;
25615;SDS011;13482;48.234;13.006;2024-02-15T14:23:14;1.10;;;0.60;;
25615;SDS011;13482;48.234;13.006;2024-02-15T14:25:43;1.42;;;0.60;;
25615;SDS011;13482;48.234;13.006;2024-02-15T14:28:17;1.35;;;0.50;;
25615;SDS011;13482;48.234;13.006;2024-02-15T14:30:44;0.88;;;0.50;;
25615;SDS011;13482;48.234;13.006;2024-02-15T14:33:30;2.05;;;0.38;;
25615;SDS011;13482;48.234;13.006;2024-02-15T14:36:01;0.90;;;0.43;;
25615;SDS011;13482;48.234;13.006;2024-02-15T14:38:31;1.38;;;0.63;;
25615;SDS011;13482;48.234;13.006;2024-02-15T14:41:01;1.20;;;0.40;;
25615;SDS011;13482;48.234;13.006;2024-02-15T14:43:34;1.10;;;0.60;;
25615;SDS011;13482;48.234;13.006;2024-02-15T14:46:02;0.60;;;0.50;;
25615;SDS011;13482;48.234;13.006;2024-02-15T14:48:32;1.10;;;0.60;;
25615;SDS011;13482;48.234;13.006;2024-02-15T14:51:00;1.17;;;0.63;;
25615;SDS011;13482;48.234;13.006;2024-02-15T14:53:29;1.25;;;0.60;;
25615;SDS011;13482;48.234;13.006;2024-02-15T14:55:57;1.38;;;0.60;;
25615;SDS011;13482;48.234;13.006;2024-02-15T14:58:25;1.40;;;0.60;;
25615;SDS011;13482;48.234;13.006;2024-02-15T15:00:53;1.52;;;0.47;;
25615;SDS011;13482;48.234;13.006;2024-02-15T15:03:24;1.75;;;0.50;;
25615;SDS011;13482;48.234;13.006;2024-02-15T15:05:54;0.77;;;0.40;;
25615;SDS011;13482;48.234;13.006;2024-02-15T15:08:40;0.65;;;0.40;;
25615;SDS011;13482;48.234;13.006;2024-02-15T15:11:26;1.83;;;0.57;;
25615;SDS011;13482;48.234;13.006;2024-02-15T15:14:12;0.60;;;0.40;;
25615;SDS011;13482;48.234;13.006;2024-02-15T15:16:41;1.88;;;0.88;;
25615;SDS011;13482;48.234;13.006;2024-02-15T15:19:09;1.20;;;0.60;;
25615;SDS011;13482;48.234;13.006;2024-02-15T15:21:37;0.93;;;0.63;;
25615;SDS011;13482;48.234;13.006;2024-02-15T15:24:05;1.23;;;0.60;;